sensor_id;sensor_type;location;lat;lon;timestamp;pressure;altitude;pressure_sealevel;temperature;humidity
74329;BME280;62749;51.982;5.916;2022-09-24T00:01:35;101177.34;;;14.27;83.93
74329;BME280;62749;51.982;5.916;2022-09-24T00:04:07;101177.53;;;14.24;84.13
74329;BME280;62749;51.982;5.916;2022-09-24T00:06:40;101179.84;;;14.30;83.93
74329;BME280;62749;51.982;5.916;2022-09-24T00:09:11;101167.91;;;14.21;84.44
74329;BME280;62749;51.982;5.916;2022-09-24T00:11:42;101168.78;;;14.22;85.26
74329;BME280;62749;51.982;5.916;2022-09-24T00:14:15;101172.38;;;14.21;85.00
74329;BME280;62749;51.982;5.916;2022-09-24T00:16:45;101167.91;;;14.21;84.50
74329;BME280;62749;51.982;5.916;2022-09-24T00:19:15;101167.59;;;14.27;83.97
74329;BME280;62749;51.982;5.916;2022-09-24T00:21:44;101168.69;;;14.23;84.97
74329;BME280;62749;51.982;5.916;2022-09-24T00:24:15;101162.38;;;14.26;84.82
74329;BME280;62749;51.982;5.916;2022-09-24T00:27:10;101157.59;;;14.15;84.83
74329;BME280;62749;51.982;5.916;2022-09-24T00:29:40;101156.66;;;14.16;84.88
74329;BME280;62749;51.982;5.916;2022-09-24T00:32:10;101156.72;;;14.15;84.85
74329;BME280;62749;51.982;5.916;2022-09-24T00:34:39;101157.25;;;14.21;84.86
74329;BME280;62749;51.982;5.916;2022-09-24T00:37:08;101149.53;;;14.17;85.03
74329;BME280;62749;51.982;5.916;2022-09-24T00:39:38;101151.50;;;14.13;84.74
74329;BME280;62749;51.982;5.916;2022-09-24T00:42:08;101156.56;;;14.18;84.87
74329;BME280;62749;51.982;5.916;2022-09-24T00:44:53;101148.59;;;14.18;84.21
74329;BME280;62749;51.982;5.916;2022-09-24T00:47:36;101147.13;;;14.12;84.87
74329;BME280;62749;51.982;5.916;2022-09-24T00:50:14;101143.44;;;14.15;85.13
74329;BME280;62749;51.982;5.916;2022-09-24T00:52:49;101149.00;;;14.10;85.20
74329;BME280;62749;51.982;5.916;2022-09-24T00:55:21;101127.91;;;14.07;85.15
74329;BME280;62749;51.982;5.916;2022-09-24T00:57:55;101138.31;;;14.11;85.07
74329;BME280;62749;51.982;5.916;2022-09-24T01:00:28;101135.56;;;14.13;84.85
74329;BME280;62749;51.982;5.916;2022-09-24T01:03:01;101133.44;;;14.20;84.24
74329;BME280;62749;51.982;5.916;2022-09-24T01:05:32;101126.66;;;14.14;84.95
74329;BME280;62749;51.982;5.916;2022-09-24T01:08:02;101124.44;;;14.22;83.67
74329;BME280;62749;51.982;5.916;2022-09-24T01:10:44;101122.81;;;14.20;83.85
74329;BME280;62749;51.982;5.916;2022-09-24T01:13:36;101121.44;;;14.13;84.47
74329;BME280;62749;51.982;5.916;2022-09-24T01:16:22;101126.66;;;14.14;84.59
74329;BME280;62749;51.982;5.916;2022-09-24T01:19:06;101118.00;;;14.10;84.88
74329;BME280;62749;51.982;5.916;2022-09-24T01:21:49;101125.72;;;14.15;84.19
74329;BME280;62749;51.982;5.916;2022-09-24T01:27:41;101116.41;;;14.06;84.60
74329;BME280;62749;51.982;5.916;2022-09-24T01:30:18;101102.19;;;14.07;84.27
74329;BME280;62749;51.982;5.916;2022-09-24T01:32:51;101095.94;;;14.08;83.63
74329;BME280;62749;51.982;5.916;2022-09-24T01:35:27;101097.03;;;14.04;83.91
74329;BME280;62749;51.982;5.916;2022-09-24T01:38:02;101092.75;;;14.02;84.71
74329;BME280;62749;51.982;5.916;2022-09-24T01:40:34;101090.19;;;14.00;84.82
74329;BME280;62749;51.982;5.916;2022-09-24T01:43:08;101093.59;;;14.02;84.16
74329;BME280;62749;51.982;5.916;2022-09-24T01:45:41;101087.34;;;14.03;84.18
74329;BME280;62749;51.982;5.916;2022-09-24T01:48:11;101079.56;;;14.00;84.04
74329;BME280;62749;51.982;5.916;2022-09-24T01:50:47;101085.63;;;14.02;84.09
74329;BME280;62749;51.982;5.916;2022-09-24T01:53:25;101087.84;;;14.11;83.58
74329;BME280;62749;51.982;5.916;2022-09-24T01:56:01;101081.19;;;14.03;83.85
74329;BME280;62749;51.982;5.916;2022-09-24T01:58:39;101079.38;;;14.03;84.35
74329;BME280;62749;51.982;5.916;2022-09-24T02:01:20;101078.38;;;14.06;83.92
74329;BME280;62749;51.982;5.916;2022-09-24T02:03:56;101069.00;;;13.99;84.19
74329;BME280;62749;51.982;5.916;2022-09-24T02:06:33;101074.56;;;13.94;84.60
74329;BME280;62749;51.982;5.916;2022-09-24T02:09:04;101072.53;;;13.99;83.38
74329;BME280;62749;51.982;5.916;2022-09-24T02:11:36;101074.31;;;13.99;83.78
74329;BME280;62749;51.982;5.916;2022-09-24T02:14:10;101078.53;;;14.03;83.45
74329;BME280;62749;51.982;5.916;2022-09-24T02:16:47;101074.06;;;14.03;83.58
74329;BME280;62749;51.982;5.916;2022-09-24T02:19:19;101076.19;;;13.96;83.80
74329;BME280;62749;51.982;5.916;2022-09-24T02:21:51;101073.38;;;14.00;83.34
74329;BME280;62749;51.982;5.916;2022-09-24T02:24:25;101066.59;;;13.94;84.38
74329;BME280;62749;51.982;5.916;2022-09-24T02:26:59;101064.31;;;14.04;83.45
74329;BME280;62749;51.982;5.916;2022-09-24T02:29:29;101061.44;;;13.91;84.15
74329;BME280;62749;51.982;5.916;2022-09-24T02:32:04;101060.50;;;13.92;83.93
74329;BME280;62749;51.982;5.916;2022-09-24T02:34:39;101061.53;;;13.89;84.12
74329;BME280;62749;51.982;5.916;2022-09-24T02:37:09;101060.44;;;13.93;83.86
74329;BME280;62749;51.982;5.916;2022-09-24T02:39:39;101061.28;;;13.94;83.78
74329;BME280;62749;51.982;5.916;2022-09-24T02:42:12;101053.31;;;13.94;84.16
74329;BME280;62749;51.982;5.916;2022-09-24T02:44:43;101051.28;;;13.99;83.18
74329;BME280;62749;51.982;5.916;2022-09-24T02:47:15;101056.13;;;13.91;83.50
74329;BME280;62749;51.982;5.916;2022-09-24T02:49:44;101051.84;;;13.88;83.74
74329;BME280;62749;51.982;5.916;2022-09-24T02:52:14;101052.69;;;13.89;83.73
74329;BME280;62749;51.982;5.916;2022-09-24T02:54:44;101055.81;;;13.97;83.48
74329;BME280;62749;51.982;5.916;2022-09-24T02:57:13;101049.88;;;13.92;83.16
74329;BME280;62749;51.982;5.916;2022-09-24T02:59:44;101050.97;;;13.88;83.98
74329;BME280;62749;51.982;5.916;2022-09-24T03:02:15;101047.69;;;13.83;83.71
74329;BME280;62749;51.982;5.916;2022-09-24T03:04:45;101049.56;;;13.80;84.16
74329;BME280;62749;51.982;5.916;2022-09-24T03:07:14;101052.06;;;13.84;84.00
74329;BME280;62749;51.982;5.916;2022-09-24T03:09:46;101052.63;;;13.90;82.20
74329;BME280;62749;51.982;5.916;2022-09-24T03:12:16;101045.44;;;13.92;82.65
74329;BME280;62749;51.982;5.916;2022-09-24T03:14:45;101053.47;;;13.91;82.80
74329;BME280;62749;51.982;5.916;2022-09-24T03:17:17;101052.28;;;13.96;82.13
74329;BME280;62749;51.982;5.916;2022-09-24T03:19:46;101042.94;;;13.89;81.98
74329;BME280;62749;51.982;5.916;2022-09-24T03:22:15;101042.84;;;13.91;82.93
74329;BME280;62749;51.982;5.916;2022-09-24T03:24:45;101040.28;;;13.89;82.63
74329;BME280;62749;51.982;5.916;2022-09-24T03:27:14;101032.16;;;13.92;81.88
74329;BME280;62749;51.982;5.916;2022-09-24T03:29:44;101033.53;;;13.82;82.48
74329;BME280;62749;51.982;5.916;2022-09-24T03:32:28;101031.13;;;13.77;83.53
74329;BME280;62749;51.982;5.916;2022-09-24T03:34:59;101032.72;;;13.81;83.86
74329;BME280;62749;51.982;5.916;2022-09-24T03:37:28;101033.72;;;13.79;83.76
74329;BME280;62749;51.982;5.916;2022-09-24T03:39:58;101031.13;;;13.77;83.62
74329;BME280;62749;51.982;5.916;2022-09-24T03:42:28;101025.81;;;13.77;83.91
74329;BME280;62749;51.982;5.916;2022-09-24T03:44:57;101030.97;;;13.80;83.56
74329;BME280;62749;51.982;5.916;2022-09-24T03:47:29;101027.25;;;13.85;82.75
74329;BME280;62749;51.982;5.916;2022-09-24T03:49:59;101028.25;;;13.82;83.62
74329;BME280;62749;51.982;5.916;2022-09-24T03:52:28;101025.19;;;13.90;82.30
74329;BME280;62749;51.982;5.916;2022-09-24T03:54:58;101026.47;;;13.83;83.25
74329;BME280;62749;51.982;5.916;2022-09-24T03:57:27;101022.09;;;13.81;83.49
74329;BME280;62749;51.982;5.916;2022-09-24T03:59:57;101023.03;;;13.80;83.90
74329;BME280;62749;51.982;5.916;2022-09-24T04:02:29;101017.56;;;13.84;82.85
74329;BME280;62749;51.982;5.916;2022-09-24T04:04:58;101020.22;;;13.84;83.21
74329;BME280;62749;51.982;5.916;2022-09-24T04:07:27;101017.63;;;13.82;83.93
74329;BME280;62749;51.982;5.916;2022-09-24T04:09:57;101017.72;;;13.80;84.05
74329;BME280;62749;51.982;5.916;2022-09-24T04:12:26;101022.09;;;13.81;83.80
74329;BME280;62749;51.982;5.916;2022-09-24T04:14:56;101020.38;;;13.80;83.43
74329;BME280;62749;51.982;5.916;2022-09-24T04:17:30;101021.16;;;13.83;82.98
74329;BME280;62749;51.982;5.916;2022-09-24T04:20:00;101008.13;;;13.78;83.68
74329;BME280;62749;51.982;5.916;2022-09-24T04:22:29;101015.94;;;13.81;83.72
74329;BME280;62749;51.982;5.916;2022-09-24T04:24:59;101007.19;;;13.79;84.12
74329;BME280;62749;51.982;5.916;2022-09-24T04:27:29;101013.34;;;13.79;83.25
74329;BME280;62749;51.982;5.916;2022-09-24T04:29:58;101003.66;;;13.78;83.12
74329;BME280;62749;51.982;5.916;2022-09-24T04:32:30;101008.34;;;13.73;83.49
74329;BME280;62749;51.982;5.916;2022-09-24T04:34:59;101008.91;;;13.80;82.96
74329;BME280;62749;51.982;5.916;2022-09-24T04:37:29;101010.63;;;13.81;82.85
74329;BME280;62749;51.982;5.916;2022-09-24T04:39:58;101010.53;;;13.83;82.67
74329;BME280;62749;51.982;5.916;2022-09-24T04:42:27;101005.59;;;13.92;81.28
74329;BME280;62749;51.982;5.916;2022-09-24T04:44:57;101000.00;;;13.81;82.47
74329;BME280;62749;51.982;5.916;2022-09-24T04:47:30;101007.72;;;13.86;82.40
74329;BME280;62749;51.982;5.916;2022-09-24T04:49:59;101009.59;;;13.84;82.91
74329;BME280;62749;51.982;5.916;2022-09-24T04:52:29;101008.72;;;13.83;83.19
74329;BME280;62749;51.982;5.916;2022-09-24T04:54:59;101002.47;;;13.84;82.51
74329;BME280;62749;51.982;5.916;2022-09-24T04:57:29;101010.53;;;13.83;82.28
74329;BME280;62749;51.982;5.916;2022-09-24T05:00:05;101003.94;;;13.90;82.03
74329;BME280;62749;51.982;5.916;2022-09-24T05:02:37;101012.00;;;13.88;81.99
74329;BME280;62749;51.982;5.916;2022-09-24T05:05:07;101014.03;;;13.83;82.54
74329;BME280;62749;51.982;5.916;2022-09-24T05:07:37;101014.38;;;13.77;83.56
74329;BME280;62749;51.982;5.916;2022-09-24T05:10:07;101016.78;;;13.81;82.86
74329;BME280;62749;51.982;5.916;2022-09-24T05:12:38;101023.94;;;13.79;82.84
74329;BME280;62749;51.982;5.916;2022-09-24T05:15:09;101004.69;;;13.76;83.44
74329;BME280;62749;51.982;5.916;2022-09-24T05:17:41;101019.56;;;13.78;83.42
74329;BME280;62749;51.982;5.916;2022-09-24T05:20:10;101015.38;;;13.74;83.63
74329;BME280;62749;51.982;5.916;2022-09-24T05:22:41;101011.63;;;13.78;83.63
74329;BME280;62749;51.982;5.916;2022-09-24T05:25:12;101017.72;;;13.80;83.78
74329;BME280;62749;51.982;5.916;2022-09-24T05:27:44;101009.91;;;13.77;83.07
74329;BME280;62749;51.982;5.916;2022-09-24T05:30:12;101007.97;;;13.81;83.02
74329;BME280;62749;51.982;5.916;2022-09-24T05:32:44;101015.16;;;13.79;82.43
74329;BME280;62749;51.982;5.916;2022-09-24T05:35:17;101016.13;;;13.76;83.52
74329;BME280;62749;51.982;5.916;2022-09-24T05:37:46;101018.88;;;13.75;83.79
74329;BME280;62749;51.982;5.916;2022-09-24T05:40:18;101012.72;;;13.74;83.69
74329;BME280;62749;51.982;5.916;2022-09-24T05:43:00;101021.00;;;13.86;82.44
74329;BME280;62749;51.982;5.916;2022-09-24T05:45:30;101019.97;;;13.88;81.96
74329;BME280;62749;51.982;5.916;2022-09-24T05:48:03;101020.22;;;13.84;82.92
74329;BME280;62749;51.982;5.916;2022-09-24T05:50:33;101027.47;;;13.80;83.25
74329;BME280;62749;51.982;5.916;2022-09-24T05:53:04;101026.69;;;13.78;83.43
74329;BME280;62749;51.982;5.916;2022-09-24T05:55:34;101016.44;;;13.88;81.42
74329;BME280;62749;51.982;5.916;2022-09-24T05:58:04;101029.56;;;13.91;81.82
74329;BME280;62749;51.982;5.916;2022-09-24T06:00:34;101027.00;;;13.89;81.62
74329;BME280;62749;51.982;5.916;2022-09-24T06:03:10;101026.47;;;13.83;82.60
74329;BME280;62749;51.982;5.916;2022-09-24T06:05:43;101031.13;;;13.77;82.79
74329;BME280;62749;51.982;5.916;2022-09-24T06:08:15;101034.19;;;13.87;82.35
74329;BME280;62749;51.982;5.916;2022-09-24T06:10:45;101028.09;;;13.85;81.93
74329;BME280;62749;51.982;5.916;2022-09-24T06:13:17;101031.53;;;13.87;82.50
74329;BME280;62749;51.982;5.916;2022-09-24T06:15:47;101030.44;;;13.91;82.19
74329;BME280;62749;51.982;5.916;2022-09-24T06:18:19;101030.50;;;13.90;82.02
74329;BME280;62749;51.982;5.916;2022-09-24T06:20:49;101037.78;;;13.86;82.51
74329;BME280;62749;51.982;5.916;2022-09-24T06:23:20;101046.44;;;13.90;82.83
74329;BME280;62749;51.982;5.916;2022-09-24T06:25:49;101036.84;;;13.87;82.22
74329;BME280;62749;51.982;5.916;2022-09-24T06:28:19;101036.19;;;14.00;81.18
74329;BME280;62749;51.982;5.916;2022-09-24T06:30:48;101037.13;;;13.99;81.50
74329;BME280;62749;51.982;5.916;2022-09-24T06:33:20;101035.41;;;13.98;81.68
74329;BME280;62749;51.982;5.916;2022-09-24T06:35:50;101034.81;;;13.92;82.51
74329;BME280;62749;51.982;5.916;2022-09-24T06:38:19;101037.22;;;13.97;81.94
74329;BME280;62749;51.982;5.916;2022-09-24T06:40:49;101036.84;;;13.87;82.85
74329;BME280;62749;51.982;5.916;2022-09-24T06:43:18;101039.50;;;13.87;83.43
74329;BME280;62749;51.982;5.916;2022-09-24T06:45:47;101048.94;;;13.93;82.16
74329;BME280;62749;51.982;5.916;2022-09-24T06:48:17;101045.75;;;13.86;82.77
74329;BME280;62749;51.982;5.916;2022-09-24T06:50:50;101048.31;;;13.88;83.09
74329;BME280;62749;51.982;5.916;2022-09-24T06:53:20;101052.63;;;13.90;82.96
74329;BME280;62749;51.982;5.916;2022-09-24T06:55:49;101056.28;;;13.88;82.83
74329;BME280;62749;51.982;5.916;2022-09-24T06:58:19;101055.41;;;13.87;83.01
74329;BME280;62749;51.982;5.916;2022-09-24T07:00:51;101051.19;;;13.83;83.13
74329;BME280;62749;51.982;5.916;2022-09-24T07:03:24;101061.22;;;13.78;84.06
74329;BME280;62749;51.982;5.916;2022-09-24T07:06:00;101056.75;;;13.78;83.26
74329;BME280;62749;51.982;5.916;2022-09-24T07:08:30;101062.69;;;13.84;83.21
74329;BME280;62749;51.982;5.916;2022-09-24T07:10:59;101054.03;;;13.80;83.47
74329;BME280;62749;51.982;5.916;2022-09-24T07:13:29;101061.53;;;13.89;83.29
74329;BME280;62749;51.982;5.916;2022-09-24T07:15:58;101064.22;;;13.88;83.59
74329;BME280;62749;51.982;5.916;2022-09-24T07:18:29;101067.38;;;13.78;83.99
74329;BME280;62749;51.982;5.916;2022-09-24T07:21:01;101059.66;;;13.74;84.41
74329;BME280;62749;51.982;5.916;2022-09-24T07:23:30;101064.31;;;13.69;84.58
74329;BME280;62749;51.982;5.916;2022-09-24T07:26:00;101072.06;;;13.73;84.75
74329;BME280;62749;51.982;5.916;2022-09-24T07:28:29;101062.53;;;13.69;84.73
74329;BME280;62749;51.982;5.916;2022-09-24T07:30:59;101065.03;;;13.72;85.03
74329;BME280;62749;51.982;5.916;2022-09-24T07:33:30;101069.88;;;13.81;84.77
74329;BME280;62749;51.982;5.916;2022-09-24T07:36:05;101077.28;;;13.75;84.59
74329;BME280;62749;51.982;5.916;2022-09-24T07:38:35;101071.44;;;13.68;84.99
74329;BME280;62749;51.982;5.916;2022-09-24T07:41:04;101082.84;;;13.70;85.08
74329;BME280;62749;51.982;5.916;2022-09-24T07:43:35;101087.06;;;13.74;84.79
74329;BME280;62749;51.982;5.916;2022-09-24T07:46:04;101083.25;;;13.80;84.09
74329;BME280;62749;51.982;5.916;2022-09-24T07:48:34;101078.22;;;13.74;84.92
74329;BME280;62749;51.982;5.916;2022-09-24T07:51:08;101088.56;;;13.80;84.91
74329;BME280;62749;51.982;5.916;2022-09-24T07:53:38;101079.88;;;13.76;85.06
74329;BME280;62749;51.982;5.916;2022-09-24T07:56:07;101093.94;;;13.78;84.27
74329;BME280;62749;51.982;5.916;2022-09-24T07:58:36;101090.56;;;13.75;84.75
74329;BME280;62749;51.982;5.916;2022-09-24T08:01:06;101093.94;;;13.78;84.49
74329;BME280;62749;51.982;5.916;2022-09-24T08:03:36;101091.03;;;13.83;84.37
74329;BME280;62749;51.982;5.916;2022-09-24T08:06:09;101095.25;;;13.87;84.22
74329;BME280;62749;51.982;5.916;2022-09-24T08:08:38;101094.47;;;13.85;84.49
74329;BME280;62749;51.982;5.916;2022-09-24T08:11:10;101102.53;;;13.84;84.17
74329;BME280;62749;51.982;5.916;2022-09-24T08:13:40;101100.66;;;13.86;84.06
74329;BME280;62749;51.982;5.916;2022-09-24T08:16:11;101098.00;;;13.86;84.23
74329;BME280;62749;51.982;5.916;2022-09-24T08:18:42;101095.25;;;13.87;84.76
74329;BME280;62749;51.982;5.916;2022-09-24T08:21:14;101102.13;;;13.91;84.90
74329;BME280;62749;51.982;5.916;2022-09-24T08:23:44;101100.97;;;13.97;84.22
74329;BME280;62749;51.982;5.916;2022-09-24T08:26:13;101102.84;;;13.95;83.96
74329;BME280;62749;51.982;5.916;2022-09-24T08:28:43;101104.84;;;13.90;84.72
74329;BME280;62749;51.982;5.916;2022-09-24T08:31:12;101111.88;;;13.91;85.10
74329;BME280;62749;51.982;5.916;2022-09-24T08:33:42;101109.78;;;13.98;84.07
74329;BME280;62749;51.982;5.916;2022-09-24T08:36:18;101114.47;;;13.92;84.25
74329;BME280;62749;51.982;5.916;2022-09-24T08:38:47;101113.06;;;14.03;84.13
74329;BME280;62749;51.982;5.916;2022-09-24T08:41:43;101113.66;;;14.08;83.59
74329;BME280;62749;51.982;5.916;2022-09-24T08:44:20;101124.25;;;14.09;83.09
74329;BME280;62749;51.982;5.916;2022-09-24T08:47:11;101128.84;;;14.06;83.17
74329;BME280;62749;51.982;5.916;2022-09-24T08:50:04;101126.41;;;14.01;83.88
74329;BME280;62749;51.982;5.916;2022-09-24T08:52:52;101127.03;;;14.06;83.67
74329;BME280;62749;51.982;5.916;2022-09-24T08:55:30;101125.41;;;14.04;84.43
74329;BME280;62749;51.982;5.916;2022-09-24T08:58:25;101127.97;;;14.05;83.22
74329;BME280;62749;51.982;5.916;2022-09-24T09:01:06;101127.97;;;14.05;83.51
74329;BME280;62749;51.982;5.916;2022-09-24T09:03:45;101131.81;;;14.00;84.38
74329;BME280;62749;51.982;5.916;2022-09-24T09:06:37;101135.81;;;14.08;84.25
74329;BME280;62749;51.982;5.916;2022-09-24T09:09:17;101131.41;;;14.07;83.81
74329;BME280;62749;51.982;5.916;2022-09-24T09:11:50;101135.94;;;14.05;84.00
74329;BME280;62749;51.982;5.916;2022-09-24T09:14:24;101132.28;;;14.08;84.22
74329;BME280;62749;51.982;5.916;2022-09-24T09:17:05;101145.88;;;14.02;84.36
74329;BME280;62749;51.982;5.916;2022-09-24T09:19:43;101149.22;;;14.05;83.72
74329;BME280;62749;51.982;5.916;2022-09-24T09:22:16;101150.50;;;13.98;84.79
74329;BME280;62749;51.982;5.916;2022-09-24T09:24:51;101150.31;;;14.01;84.67
74329;BME280;62749;51.982;5.916;2022-09-24T09:27:21;101148.38;;;14.05;84.74
74329;BME280;62749;51.982;5.916;2022-09-24T09:30:02;101153.47;;;14.09;84.58
74329;BME280;62749;51.982;5.916;2022-09-24T09:32:43;101163.75;;;14.16;84.29
74329;BME280;62749;51.982;5.916;2022-09-24T09:35:25;101168.06;;;14.18;84.01
74329;BME280;62749;51.982;5.916;2022-09-24T09:38:08;101164.16;;;14.08;84.46
74329;BME280;62749;51.982;5.916;2022-09-24T09:40:54;101160.56;;;14.09;84.58
74329;BME280;62749;51.982;5.916;2022-09-24T09:43:26;101158.69;;;14.11;84.51
74329;BME280;62749;51.982;5.916;2022-09-24T09:46:05;101158.78;;;14.09;85.04
74329;BME280;62749;51.982;5.916;2022-09-24T09:48:43;101167.59;;;14.10;85.66
74329;BME280;62749;51.982;5.916;2022-09-24T09:51:18;101160.63;;;14.07;84.95
74329;BME280;62749;51.982;5.916;2022-09-24T09:53:55;101167.34;;;14.15;84.60
74329;BME280;62749;51.982;5.916;2022-09-24T09:56:30;101167.69;;;14.08;84.68
74329;BME280;62749;51.982;5.916;2022-09-24T09:59:05;101166.03;;;14.06;85.29
74329;BME280;62749;51.982;5.916;2022-09-24T10:01:38;101165.81;;;14.10;84.36
74329;BME280;62749;51.982;5.916;2022-09-24T10:04:26;101170.25;;;14.10;84.13
74329;BME280;62749;51.982;5.916;2022-09-24T10:07:04;101163.28;;;14.07;85.07
74329;BME280;62749;51.982;5.916;2022-09-24T10:09:34;101175.78;;;14.05;84.34
74329;BME280;62749;51.982;5.916;2022-09-24T10:12:14;101168.47;;;14.10;83.73
74329;BME280;62749;51.982;5.916;2022-09-24T10:14:57;101172.66;;;14.15;84.33
74329;BME280;62749;51.982;5.916;2022-09-24T10:17:32;101179.16;;;14.09;84.92
74329;BME280;62749;51.982;5.916;2022-09-24T10:20:08;101169.41;;;14.09;84.88
74329;BME280;62749;51.982;5.916;2022-09-24T10:22:48;101173.59;;;14.14;84.65
74329;BME280;62749;51.982;5.916;2022-09-24T10:25:22;101175.16;;;14.18;84.84
74329;BME280;62749;51.982;5.916;2022-09-24T10:27:58;101175.16;;;14.18;84.94
74329;BME280;62749;51.982;5.916;2022-09-24T10:30:54;101173.38;;;14.18;83.81
74329;BME280;62749;51.982;5.916;2022-09-24T10:33:24;101174.09;;;14.22;84.07
74329;BME280;62749;51.982;5.916;2022-09-24T10:36:04;101172.66;;;14.15;85.14
74329;BME280;62749;51.982;5.916;2022-09-24T10:38:34;101174.56;;;14.13;85.45
74329;BME280;62749;51.982;5.916;2022-09-24T10:41:13;101171.81;;;14.14;85.19
74329;BME280;62749;51.982;5.916;2022-09-24T10:43:52;101176.50;;;14.09;85.50
74329;BME280;62749;51.982;5.916;2022-09-24T10:46:49;101179.09;;;14.10;85.68
74329;BME280;62749;51.982;5.916;2022-09-24T10:49:37;101170.19;;;14.11;85.70
74329;BME280;62749;51.982;5.916;2022-09-24T10:52:24;101177.03;;;14.16;85.54
74329;BME280;62749;51.982;5.916;2022-09-24T10:55:13;101182.75;;;14.08;85.71
74329;BME280;62749;51.982;5.916;2022-09-24T10:57:56;101177.44;;;14.08;85.84
74329;BME280;62749;51.982;5.916;2022-09-24T11:00:38;101178.84;;;14.15;85.45
74329;BME280;62749;51.982;5.916;2022-09-24T11:03:34;101172.22;;;14.24;84.98
74329;BME280;62749;51.982;5.916;2022-09-24T11:06:22;101186.34;;;14.24;84.41
74329;BME280;62749;51.982;5.916;2022-09-24T11:09:12;101175.88;;;14.21;84.05
74329;BME280;62749;51.982;5.916;2022-09-24T11:11:55;101186.88;;;14.14;85.15
74329;BME280;62749;51.982;5.916;2022-09-24T11:14:45;101182.22;;;14.19;84.75
74329;BME280;62749;51.982;5.916;2022-09-24T11:17:29;101180.44;;;14.19;84.35
74329;BME280;62749;51.982;5.916;2022-09-24T11:20:15;101189.38;;;14.17;84.72
74329;BME280;62749;51.982;5.916;2022-09-24T11:23:02;101187.66;;;14.16;84.97
74329;BME280;62749;51.982;5.916;2022-09-24T11:25:43;101189.47;;;14.15;85.34
74329;BME280;62749;51.982;5.916;2022-09-24T11:28:31;101193.16;;;14.13;85.46
74329;BME280;62749;51.982;5.916;2022-09-24T11:31:16;101191.81;;;14.21;85.22
74329;BME280;62749;51.982;5.916;2022-09-24T11:34:10;101188.59;;;14.15;85.16
74329;BME280;62749;51.982;5.916;2022-09-24T11:36:59;101200.72;;;14.20;85.14
74329;BME280;62749;51.982;5.916;2022-09-24T11:39:47;101195.75;;;14.32;84.46
74329;BME280;62749;51.982;5.916;2022-09-24T11:42:24;101193.00;;;14.33;84.71
74329;BME280;62749;51.982;5.916;2022-09-24T11:45:15;101194.00;;;14.31;84.34
74329;BME280;62749;51.982;5.916;2022-09-24T11:48:03;101190.19;;;14.36;84.86
74329;BME280;62749;51.982;5.916;2022-09-24T11:50:48;101190.72;;;14.25;85.29
74329;BME280;62749;51.982;5.916;2022-09-24T11:53:30;101193.47;;;14.24;85.19
74329;BME280;62749;51.982;5.916;2022-09-24T11:56:08;101192.59;;;14.23;84.80
74329;BME280;62749;51.982;5.916;2022-09-24T11:58:43;101195.34;;;14.22;84.81
74329;BME280;62749;51.982;5.916;2022-09-24T12:01:19;101199.63;;;14.24;85.12
74329;BME280;62749;51.982;5.916;2022-09-24T12:03:56;101188.47;;;14.18;84.75
74329;BME280;62749;51.982;5.916;2022-09-24T12:06:33;101195.88;;;14.29;84.79
74329;BME280;62749;51.982;5.916;2022-09-24T12:09:13;101195.19;;;14.25;84.41
74329;BME280;62749;51.982;5.916;2022-09-24T12:11:50;101193.13;;;14.30;84.10
74329;BME280;62749;51.982;5.916;2022-09-24T12:14:25;101193.47;;;14.24;84.75
74329;BME280;62749;51.982;5.916;2022-09-24T12:17:03;101190.88;;;14.22;85.10
74329;BME280;62749;51.982;5.916;2022-09-24T12:19:43;101196.72;;;14.29;84.79
74329;BME280;62749;51.982;5.916;2022-09-24T12:22:21;101192.69;;;14.22;85.60
74329;BME280;62749;51.982;5.916;2022-09-24T12:24:53;101183.09;;;14.19;85.95
74329;BME280;62749;51.982;5.916;2022-09-24T12:27:32;101187.13;;;14.26;86.19
74329;BME280;62749;51.982;5.916;2022-09-24T12:30:14;101189.53;;;14.31;85.86
74329;BME280;62749;51.982;5.916;2022-09-24T12:33:07;101194.00;;;14.31;85.30
74329;BME280;62749;51.982;5.916;2022-09-24T12:36:01;101194.94;;;14.30;85.87
74329;BME280;62749;51.982;5.916;2022-09-24T12:38:39;101187.81;;;14.30;86.01
74329;BME280;62749;51.982;5.916;2022-09-24T12:41:23;101193.84;;;14.34;85.02
74329;BME280;62749;51.982;5.916;2022-09-24T12:44:00;101196.72;;;14.29;85.75
74329;BME280;62749;51.982;5.916;2022-09-24T12:46:38;101197.75;;;14.26;86.00
74329;BME280;62749;51.982;5.916;2022-09-24T12:49:25;101185.56;;;14.22;86.10
74329;BME280;62749;51.982;5.916;2022-09-24T12:51:59;101194.16;;;14.27;86.18
74329;BME280;62749;51.982;5.916;2022-09-24T12:54:35;101189.88;;;14.25;85.77
74329;BME280;62749;51.982;5.916;2022-09-24T12:57:07;101196.59;;;14.32;85.53
74329;BME280;62749;51.982;5.916;2022-09-24T12:59:50;101202.03;;;14.29;85.03
74329;BME280;62749;51.982;5.916;2022-09-24T13:02:22;101191.59;;;14.26;85.55
74329;BME280;62749;51.982;5.916;2022-09-24T13:05:16;101189.69;;;14.28;85.75
74329;BME280;62749;51.982;5.916;2022-09-24T13:07:56;101195.19;;;14.25;86.07
74329;BME280;62749;51.982;5.916;2022-09-24T13:10:30;101185.16;;;14.30;86.13
74329;BME280;62749;51.982;5.916;2022-09-24T13:13:13;101188.06;;;14.43;85.69
74329;BME280;62749;51.982;5.916;2022-09-24T13:15:45;101186.00;;;14.48;84.32
74329;BME280;62749;51.982;5.916;2022-09-24T13:18:25;101189.06;;;14.40;85.54
74329;BME280;62749;51.982;5.916;2022-09-24T13:21:01;101176.03;;;14.36;85.62
74329;BME280;62749;51.982;5.916;2022-09-24T13:23:46;101184.19;;;14.33;85.06
74329;BME280;62749;51.982;5.916;2022-09-24T13:26:30;101183.00;;;14.38;85.08
74329;BME280;62749;51.982;5.916;2022-09-24T13:29:03;101185.47;;;14.41;84.81
74329;BME280;62749;51.982;5.916;2022-09-24T13:31:43;101186.34;;;14.42;84.78
74329;BME280;62749;51.982;5.916;2022-09-24T13:34:18;101179.31;;;14.41;84.80